Time;durP1;ratioP1;P1;durP2;ratioP2;P2;SDS_P1;SDS_P2;PMS_P1;PMS_P2;Temp;Humidity;BMP_temperature;BMP_pressure;BME280_temperature;BME280_humidity;BME280_pressure;Samples;Min_cycle;Max_cycle;Signal;HPM_P1;HPM_P2
2021/12/30 00:00:16;;;;;;;16.93;12.23;;;6.40;99.90;;;;;;5040560;28;20185;-80
2021/12/30 00:02:42;;;;;;;19.43;12.93;;;6.40;99.90;;;;;;5042198;28;20182;-80
2021/12/30 00:05:11;;;;;;;18.53;12.83;;;6.60;99.90;;;;;;5039474;28;20205;-80
2021/12/30 00:07:37;;;;;;;24.77;13.40;;;6.70;99.90;;;;;;5046380;28;20189;-80
2021/12/30 00:10:05;;;;;;;19.53;13.13;;;6.80;99.90;;;;;;5048800;28;20189;-79
2021/12/30 00:12:41;;;;;;;23.67;14.60;;;6.80;99.90;;;;;;5043939;28;20185;-79
2021/12/30 00:15:08;;;;;;;22.30;15.47;;;6.90;99.90;;;;;;5034536;28;20580;-78
2021/12/30 00:17:34;;;;;;;23.57;16.47;;;7.00;99.90;;;;;;5032939;28;20166;-78
2021/12/30 00:20:01;;;;;;;21.93;14.70;;;7.00;99.90;;;;;;5031002;28;20518;-78
2021/12/30 00:22:28;;;;;;;25.27;16.87;;;7.00;99.90;;;;;;5037130;28;20166;-78
2021/12/30 00:24:53;;;;;;;25.60;17.03;;;7.00;99.90;;;;;;5035190;28;20281;-79
2021/12/30 00:27:19;;;;;;;27.90;17.97;;;7.00;99.90;;;;;;5031913;28;20208;-78
2021/12/30 00:29:47;;;;;;;29.33;18.23;;;7.10;99.90;;;;;;5031224;28;20185;-78
2021/12/30 00:32:12;;;;;;;30.47;18.37;;;7.10;99.90;;;;;;5038754;28;20183;-78
2021/12/30 00:34:38;;;;;;;29.77;18.67;;;7.20;99.90;;;;;;5039934;28;20201;-78
2021/12/30 00:37:04;;;;;;;27.97;18.23;;;7.20;99.90;;;;;;5041589;28;20173;-78
2021/12/30 00:39:30;;;;;;;33.10;19.13;;;7.20;99.90;;;;;;5033958;28;20177;-80
2021/12/30 00:41:56;;;;;;;34.80;20.10;;;7.20;99.90;;;;;;5045259;28;20189;-77
2021/12/30 00:44:22;;;;;;;36.57;19.77;;;7.30;99.90;;;;;;5025251;28;20185;-78
2021/12/30 00:46:48;;;;;;;37.87;22.00;;;7.30;99.90;;;;;;5040009;28;20181;-78
2021/12/30 00:49:14;;;;;;;37.47;20.90;;;7.30;99.90;;;;;;5041890;28;20187;-77
2021/12/30 00:51:40;;;;;;;41.13;22.77;;;7.30;99.90;;;;;;5038201;28;20182;-78
2021/12/30 00:54:07;;;;;;;38.43;22.23;;;7.40;99.90;;;;;;5034485;28;20557;-77
2021/12/30 00:56:32;;;;;;;43.37;24.03;;;7.40;99.90;;;;;;5045013;28;20587;-77
2021/12/30 00:58:58;;;;;;;44.10;23.47;;;7.40;99.90;;;;;;5047086;28;20670;-77
2021/12/30 01:01:24;;;;;;;46.87;24.03;;;7.50;99.90;;;;;;5045098;28;20595;-78
2021/12/30 01:03:51;;;;;;;43.70;23.53;;;7.50;99.90;;;;;;5036777;28;20299;-77
2021/12/30 01:06:17;;;;;;;45.33;24.73;;;7.50;99.90;;;;;;5047469;28;20211;-78
2021/12/30 01:08:43;;;;;;;49.23;25.47;;;7.50;99.90;;;;;;5037786;28;20597;-78
2021/12/30 01:11:10;;;;;;;44.57;24.93;;;7.50;99.90;;;;;;5031309;28;20182;-76
2021/12/30 01:13:39;;;;;;;50.63;26.37;;;7.50;99.90;;;;;;5025170;28;20192;-78
2021/12/30 01:16:15;;;;;;;44.83;25.00;;;7.50;99.90;;;;;;5040846;28;20227;-78
2021/12/30 01:18:54;;;;;;;46.47;25.43;;;7.60;99.90;;;;;;5029178;28;20256;-80
2021/12/30 01:21:22;;;;;;;64.80;28.03;;;7.50;99.90;;;;;;5039119;28;20283;-78
2021/12/30 01:23:47;;;;;;;56.27;28.60;;;7.60;99.90;;;;;;5032660;28;20197;-79
2021/12/30 01:26:13;;;;;;;55.87;27.97;;;7.60;99.90;;;;;;5025383;28;20197;-78
2021/12/30 01:28:40;;;;;;;49.20;26.33;;;7.70;99.90;;;;;;5041484;28;20200;-77
2021/12/30 01:31:07;;;;;;;52.23;27.20;;;7.70;99.90;;;;;;5019715;28;20244;-77
2021/12/30 01:33:33;;;;;;;51.40;26.90;;;7.70;99.90;;;;;;5035406;28;20181;-77
2021/12/30 01:36:02;;;;;;;53.07;28.03;;;7.70;99.90;;;;;;5042745;28;20243;-76
2021/12/30 01:38:28;;;;;;;52.40;27.33;;;7.70;99.90;;;;;;5034858;28;20260;-77
2021/12/30 01:40:57;;;;;;;50.23;27.63;;;7.70;99.90;;;;;;5031984;28;20312;-77
2021/12/30 01:43:23;;;;;;;51.60;27.43;;;7.70;99.90;;;;;;5037290;28;20202;-77
2021/12/30 01:45:50;;;;;;;47.63;26.83;;;7.80;99.90;;;;;;5025029;28;20282;-77
2021/12/30 01:48:16;;;;;;;56.47;27.47;;;7.80;99.90;;;;;;5043229;28;20248;-77
2021/12/30 01:50:41;;;;;;;54.50;26.87;;;7.80;99.90;;;;;;5045978;28;20638;-77
2021/12/30 01:53:08;;;;;;;44.57;25.87;;;7.80;99.90;;;;;;5029585;28;20192;-77
2021/12/30 01:55:35;;;;;;;46.43;26.57;;;7.80;99.90;;;;;;5034018;28;20206;-77
2021/12/30 01:58:03;;;;;;;47.97;25.87;;;7.90;99.90;;;;;;5016729;28;20178;-77
2021/12/30 02:00:30;;;;;;;51.77;27.00;;;7.90;99.90;;;;;;5030435;28;20257;-77
2021/12/30 02:02:56;;;;;;;48.20;25.87;;;7.90;99.90;;;;;;5021220;28;20563;-76
2021/12/30 02:05:21;;;;;;;43.70;25.93;;;7.90;99.90;;;;;;5023660;28;20204;-78
2021/12/30 02:07:51;;;;;;;52.23;25.23;;;7.90;99.90;;;;;;5020552;28;20235;-77
2021/12/30 02:10:17;;;;;;;46.13;25.93;;;7.90;99.90;;;;;;5042297;28;20189;-77
2021/12/30 02:12:46;;;;;;;51.67;25.10;;;7.90;99.90;;;;;;5044405;28;20188;-78
2021/12/30 02:15:17;;;;;;;43.60;24.50;;;7.90;99.90;;;;;;5043894;28;20229;-78
2021/12/30 02:17:51;;;;;;;44.43;23.50;;;7.90;99.90;;;;;;5038287;28;20181;-78
2021/12/30 02:20:44;;;;;;;46.93;24.43;;;7.90;99.90;;;;;;5041219;28;20173;-78
2021/12/30 02:23:09;;;;;;;44.33;22.40;;;8.00;99.90;;;;;;5033154;28;20173;-77
2021/12/30 02:25:35;;;;;;;48.40;22.87;;;7.90;99.90;;;;;;5031842;28;20243;-77
2021/12/30 02:28:06;;;;;;;37.73;21.23;;;8.00;99.90;;;;;;5038805;28;20201;-77
2021/12/30 02:30:32;;;;;;;42.27;21.10;;;8.00;99.90;;;;;;5027504;28;20638;-76
2021/12/30 02:32:58;;;;;;;40.43;19.83;;;8.00;99.90;;;;;;5025221;28;20232;-76
2021/12/30 02:35:29;;;;;;;39.57;19.40;;;8.00;99.90;;;;;;5029869;28;20221;-77
2021/12/30 02:37:55;;;;;;;42.00;18.73;;;8.00;99.90;;;;;;5034736;28;20180;-77
2021/12/30 02:40:32;;;;;;;36.77;19.30;;;8.00;99.90;;;;;;5032934;28;20178;-77
2021/12/30 02:42:59;;;;;;;39.43;18.30;;;8.00;99.90;;;;;;5024562;28;20165;-78
2021/12/30 02:45:25;;;;;;;37.90;17.77;;;8.00;99.90;;;;;;5026437;28;20209;-78
2021/12/30 02:47:51;;;;;;;38.37;18.17;;;8.00;99.90;;;;;;5043130;28;20526;-79
2021/12/30 02:50:17;;;;;;;37.87;16.67;;;8.00;99.90;;;;;;5037985;28;20223;-79
2021/12/30 02:52:42;;;;;;;40.97;16.80;;;8.10;99.90;;;;;;5027036;28;20232;-78
2021/12/30 02:55:09;;;;;;;25.87;14.77;;;8.10;99.90;;;;;;5038592;28;20213;-78
2021/12/30 02:57:35;;;;;;;36.13;14.00;;;8.10;99.90;;;;;;5026913;28;20197;-79
2021/12/30 03:00:01;;;;;;;33.37;14.60;;;8.10;99.90;;;;;;5039220;28;20178;-77
2021/12/30 03:02:26;;;;;;;31.23;13.93;;;8.10;99.90;;;;;;5039957;28;20638;-77
2021/12/30 03:04:52;;;;;;;33.40;14.07;;;8.20;99.90;;;;;;5027106;28;20213;-77
2021/12/30 03:07:18;;;;;;;33.23;12.87;;;8.20;99.90;;;;;;5030940;28;20177;-78
2021/12/30 03:09:47;;;;;;;33.97;14.20;;;8.20;99.90;;;;;;5038747;28;20177;-78
2021/12/30 03:12:13;;;;;;;33.23;13.47;;;8.20;99.90;;;;;;5022645;28;20228;-78
2021/12/30 03:14:40;;;;;;;29.10;12.20;;;8.20;99.90;;;;;;5025358;28;20215;-79
2021/12/30 03:17:06;;;;;;;27.67;11.83;;;8.20;99.90;;;;;;5039363;28;20173;-78
2021/12/30 03:19:32;;;;;;;29.77;10.33;;;8.20;99.90;;;;;;5035050;28;20170;-77
2021/12/30 03:21:59;;;;;;;28.93;10.67;;;8.20;99.90;;;;;;5040801;28;20169;-77
2021/12/30 03:24:24;;;;;;;27.37;10.37;;;8.20;99.90;;;;;;5041433;28;20178;-77
2021/12/30 03:26:51;;;;;;;21.17;9.40;;;8.20;99.90;;;;;;5030959;28;20622;-77
2021/12/30 03:29:17;;;;;;;27.10;9.63;;;8.20;99.90;;;;;;5040976;28;20177;-77
2021/12/30 03:31:43;;;;;;;26.27;9.43;;;8.20;99.90;;;;;;5032416;28;20268;-78
2021/12/30 03:34:08;;;;;;;22.37;8.57;;;8.10;99.90;;;;;;5036748;28;20232;-77
2021/12/30 03:36:34;;;;;;;24.77;9.47;;;8.20;99.90;;;;;;5039668;28;20174;-78
2021/12/30 03:39:01;;;;;;;22.97;9.20;;;8.10;99.90;;;;;;5025738;28;20597;-78
2021/12/30 03:41:28;;;;;;;22.43;8.83;;;8.10;99.90;;;;;;5033862;28;20173;-78
2021/12/30 03:44:01;;;;;;;26.87;8.80;;;8.10;99.90;;;;;;5044005;28;20181;-78
2021/12/30 03:46:28;;;;;;;23.40;8.33;;;8.00;99.90;;;;;;5024427;28;20754;-78
2021/12/30 03:48:54;;;;;;;22.97;8.20;;;8.00;99.90;;;;;;5041559;28;20177;-79
2021/12/30 03:51:24;;;;;;;26.37;8.20;;;8.00;99.90;;;;;;5028106;28;20178;-78
2021/12/30 03:53:56;;;;;;;23.37;8.33;;;7.90;99.90;;;;;;5030034;28;20181;-78
2021/12/30 03:56:26;;;;;;;25.17;8.50;;;7.90;99.90;;;;;;5034939;28;20189;-77
2021/12/30 03:58:59;;;;;;;24.33;7.67;;;8.00;99.90;;;;;;5034152;28;20630;-77
2021/12/30 04:01:27;;;;;;;24.07;7.90;;;7.90;99.90;;;;;;5031182;28;20165;-77
2021/12/30 04:03:53;;;;;;;23.50;7.73;;;7.90;99.90;;;;;;5032311;28;20260;-77
2021/12/30 04:06:19;;;;;;;24.63;7.30;;;7.90;99.90;;;;;;5031247;28;20212;-78
2021/12/30 04:08:45;;;;;;;27.13;7.50;;;7.80;99.90;;;;;;5034636;28;20174;-77
2021/12/30 04:11:11;;;;;;;24.83;7.60;;;7.80;99.90;;;;;;5023829;28;20166;-78
2021/12/30 04:13:37;;;;;;;23.80;7.43;;;7.80;99.90;;;;;;5034866;28;20169;-78
2021/12/30 04:16:04;;;;;;;25.50;7.40;;;7.70;99.90;;;;;;5036381;28;20537;-78
2021/12/30 04:18:30;;;;;;;28.90;7.77;;;7.70;99.90;;;;;;5028198;28;20178;-78
2021/12/30 04:20:55;;;;;;;18.53;6.87;;;7.70;99.90;;;;;;5030792;28;20187;-78
2021/12/30 04:23:21;;;;;;;20.57;7.20;;;7.70;99.90;;;;;;5033225;28;20264;-77
2021/12/30 04:25:47;;;;;;;30.47;8.27;;;7.70;99.90;;;;;;5027595;28;20285;-77
2021/12/30 04:28:13;;;;;;;25.37;8.03;;;7.60;99.90;;;;;;5028001;28;20544;-78
2021/12/30 04:30:39;;;;;;;21.47;6.83;;;7.60;99.90;;;;;;5036695;28;20244;-78
2021/12/30 04:33:08;;;;;;;24.63;8.10;;;7.60;99.90;;;;;;5023947;28;20192;-78
2021/12/30 04:35:34;;;;;;;24.23;7.40;;;7.60;99.90;;;;;;5030624;28;20216;-77
2021/12/30 04:38:00;;;;;;;20.70;7.43;;;7.60;99.90;;;;;;5023671;28;20178;-77
2021/12/30 04:40:28;;;;;;;28.03;8.53;;;7.50;99.90;;;;;;5036737;28;20173;-77
2021/12/30 04:42:53;;;;;;;22.00;7.80;;;7.50;99.90;;;;;;5030286;28;20185;-77
2021/12/30 04:45:19;;;;;;;24.73;8.43;;;7.50;99.90;;;;;;5031750;28;20217;-77
2021/12/30 04:47:45;;;;;;;21.90;8.00;;;7.50;99.90;;;;;;5026082;28;20185;-77
2021/12/30 04:50:12;;;;;;;23.80;8.37;;;7.50;99.90;;;;;;5027155;28;20236;-77
2021/12/30 04:52:38;;;;;;;32.13;8.60;;;7.50;99.90;;;;;;5042992;28;20181;-77
2021/12/30 04:55:05;;;;;;;27.43;8.87;;;7.50;99.90;;;;;;5036777;28;20206;-77
2021/12/30 04:57:31;;;;;;;23.77;8.50;;;7.50;99.90;;;;;;5044913;28;20621;-77
2021/12/30 04:59:57;;;;;;;25.33;7.70;;;7.60;99.90;;;;;;5028335;28;20188;-78
2021/12/30 05:02:26;;;;;;;28.97;8.33;;;7.60;99.90;;;;;;5030429;28;20170;-77
2021/12/30 05:04:52;;;;;;;28.50;9.20;;;7.60;99.90;;;;;;5044629;28;20608;-77
2021/12/30 05:07:18;;;;;;;30.33;8.83;;;7.60;99.90;;;;;;5027215;28;20227;-77
2021/12/30 05:09:43;;;;;;;32.77;9.13;;;7.60;99.90;;;;;;5021009;28;20186;-77
2021/12/30 05:12:09;;;;;;;28.30;8.60;;;7.60;99.90;;;;;;5034380;28;20177;-77
2021/12/30 05:14:35;;;;;;;28.00;9.67;;;7.70;99.90;;;;;;5032148;28;20201;-78
2021/12/30 05:17:03;;;;;;;30.03;9.43;;;7.80;99.90;;;;;;5023025;28;20185;-77
2021/12/30 05:19:30;;;;;;;23.63;9.50;;;7.80;99.90;;;;;;5032326;28;20185;-78
2021/12/30 05:21:56;;;;;;;25.00;9.57;;;7.80;99.90;;;;;;5041985;28;20184;-77
2021/12/30 05:24:23;;;;;;;23.37;9.47;;;7.90;99.90;;;;;;5044337;28;20265;-77
2021/12/30 05:26:48;;;;;;;24.03;9.53;;;7.90;99.90;;;;;;5027625;28;20182;-77
2021/12/30 05:29:15;;;;;;;25.00;9.90;;;7.90;99.90;;;;;;5040108;28;20188;-77
2021/12/30 05:31:41;;;;;;;23.73;9.30;;;7.90;99.90;;;;;;5034927;28;20211;-78
2021/12/30 05:34:07;;;;;;;30.33;10.10;;;8.00;99.90;;;;;;5038187;28;20201;-77
2021/12/30 05:36:32;;;;;;;35.40;9.40;;;8.00;99.90;;;;;;5022208;28;20255;-77
2021/12/30 05:39:11;;;;;;;37.30;10.20;;;8.10;99.90;;;;;;5031647;28;20181;-77
2021/12/30 05:41:37;;;;;;;30.80;10.00;;;8.00;99.90;;;;;;5049463;28;20185;-77
2021/12/30 05:44:03;;;;;;;39.23;10.60;;;8.10;99.90;;;;;;5035915;28;20260;-77
2021/12/30 05:46:28;;;;;;;30.40;9.67;;;8.00;99.90;;;;;;5046300;28;20205;-79
2021/12/30 05:48:54;;;;;;;33.47;10.13;;;8.00;99.90;;;;;;5045657;28;20600;-80
2021/12/30 05:51:20;;;;;;;29.73;10.73;;;8.00;99.90;;;;;;5037884;28;20666;-78
2021/12/30 05:53:45;;;;;;;28.77;10.27;;;8.00;99.90;;;;;;5052022;28;20178;-78
2021/12/30 05:56:11;;;;;;;31.63;9.87;;;8.10;99.90;;;;;;5042150;28;20198;-80
2021/12/30 05:58:38;;;;;;;28.23;9.93;;;8.00;99.90;;;;;;5033323;28;20194;-80
2021/12/30 06:01:03;;;;;;;34.17;11.60;;;8.00;99.90;;;;;;5039767;28;20205;-79
2021/12/30 06:03:29;;;;;;;31.33;11.00;;;8.10;99.90;;;;;;5054920;28;20180;-81
2021/12/30 06:05:55;;;;;;;32.90;11.40;;;8.10;99.90;;;;;;5039480;28;20213;-80
2021/12/30 06:08:20;;;;;;;32.90;11.73;;;8.10;99.90;;;;;;5050206;28;20178;-80
2021/12/30 06:10:46;;;;;;;34.13;11.47;;;8.10;99.90;;;;;;5048061;28;20185;-79
2021/12/30 06:13:13;;;;;;;38.13;12.07;;;8.10;99.90;;;;;;5047342;28;20272;-81
2021/12/30 06:15:39;;;;;;;30.97;11.43;;;8.10;99.90;;;;;;5036758;28;20205;-80
2021/12/30 06:18:05;;;;;;;35.63;13.37;;;8.10;99.90;;;;;;5047518;28;20275;-81
2021/12/30 06:20:31;;;;;;;36.37;12.67;;;8.10;99.90;;;;;;5050461;28;20181;-80
2021/12/30 06:22:57;;;;;;;31.87;12.53;;;8.10;99.90;;;;;;5032345;28;20168;-76
2021/12/30 06:25:23;;;;;;;40.90;13.83;;;8.10;99.90;;;;;;5038169;28;20202;-80
2021/12/30 06:27:49;;;;;;;43.50;13.73;;;8.10;99.90;;;;;;5038304;28;20188;-79
2021/12/30 06:30:15;;;;;;;36.00;13.00;;;8.20;99.90;;;;;;5045989;28;20198;-80
2021/12/30 06:32:41;;;;;;;41.53;13.80;;;8.30;99.90;;;;;;5040049;28;20249;-80
2021/12/30 06:35:08;;;;;;;39.57;13.60;;;8.20;99.90;;;;;;5047185;28;20271;-76
2021/12/30 06:37:35;;;;;;;40.73;14.00;;;8.20;99.90;;;;;;5037748;28;20253;-80
2021/12/30 06:40:02;;;;;;;37.27;14.47;;;8.20;99.90;;;;;;5045510;28;20204;-80
2021/12/30 06:42:28;;;;;;;43.97;14.70;;;8.30;99.90;;;;;;5044940;28;20174;-81
2021/12/30 06:44:54;;;;;;;38.30;13.90;;;8.30;99.90;;;;;;5049881;28;20280;-80
2021/12/30 06:47:19;;;;;;;39.37;14.57;;;8.30;99.90;;;;;;5031421;28;20177;-81
2021/12/30 06:49:45;;;;;;;40.87;14.60;;;8.30;99.90;;;;;;5036552;28;20174;-81
2021/12/30 06:52:12;;;;;;;40.40;14.83;;;8.30;99.90;;;;;;5036046;28;20181;-81
2021/12/30 06:54:38;;;;;;;42.03;14.47;;;8.30;99.90;;;;;;5035143;28;20241;-80
2021/12/30 06:57:06;;;;;;;39.57;14.83;;;8.30;99.90;;;;;;5047465;28;20177;-81
2021/12/30 06:59:32;;;;;;;35.77;14.37;;;8.30;99.90;;;;;;5036937;28;20581;-81
2021/12/30 07:01:59;;;;;;;42.33;13.77;;;8.30;99.90;;;;;;5046732;28;20173;-81
2021/12/30 07:04:25;;;;;;;36.97;14.53;;;8.30;99.90;;;;;;5046775;28;20177;-81
2021/12/30 07:06:52;;;;;;;37.93;14.53;;;8.30;99.90;;;;;;5047947;28;20184;-81
2021/12/30 07:09:18;;;;;;;41.67;14.57;;;8.30;99.90;;;;;;5043136;28;20195;-80
2021/12/30 07:11:44;;;;;;;37.87;13.53;;;8.30;99.90;;;;;;5036908;28;20189;-81
2021/12/30 07:14:10;;;;;;;32.03;13.80;;;8.30;99.90;;;;;;5035096;28;20201;-81
2021/12/30 07:16:36;;;;;;;47.73;14.80;;;8.30;99.90;;;;;;5053953;28;20200;-81
2021/12/30 07:19:02;;;;;;;40.67;14.17;;;8.30;99.90;;;;;;5035299;28;20594;-81
2021/12/30 07:21:28;;;;;;;34.20;14.10;;;8.40;99.90;;;;;;5047662;28;20561;-80
2021/12/30 07:24:00;;;;;;;40.47;16.60;;;8.40;99.90;;;;;;5037787;28;20173;-81
2021/12/30 07:26:25;;;;;;;43.07;16.33;;;8.50;99.90;;;;;;5037764;28;20198;-81
2021/12/30 07:28:51;;;;;;;43.77;15.67;;;8.50;99.90;;;;;;5046046;28;20251;-81
2021/12/30 07:31:16;;;;;;;44.33;15.80;;;8.50;99.90;;;;;;5051448;28;20170;-79
2021/12/30 07:33:42;;;;;;;48.07;15.60;;;8.50;99.90;;;;;;5053328;28;20241;-77
2021/12/30 07:36:08;;;;;;;43.23;15.47;;;8.50;99.90;;;;;;5045337;28;20209;-79
2021/12/30 07:38:33;;;;;;;36.07;13.90;;;8.50;99.90;;;;;;5044661;28;20234;-76
2021/12/30 07:40:59;;;;;;;38.93;14.53;;;8.50;99.90;;;;;;5060224;28;20191;-79
2021/12/30 07:43:25;;;;;;;45.90;14.90;;;8.50;99.90;;;;;;5051884;28;20178;-79
2021/12/30 07:45:51;;;;;;;38.77;14.07;;;8.50;99.90;;;;;;5060803;28;20199;-76
2021/12/30 07:48:18;;;;;;;43.93;14.83;;;8.60;99.90;;;;;;5062019;28;20255;-78
2021/12/30 07:50:44;;;;;;;39.37;14.80;;;8.60;99.90;;;;;;5051579;28;20195;-77
2021/12/30 07:53:10;;;;;;;45.97;15.63;;;8.60;99.90;;;;;;5062837;28;20170;-77
2021/12/30 07:55:35;;;;;;;44.73;15.73;;;8.60;99.90;;;;;;5060719;28;20205;-78
2021/12/30 07:58:01;;;;;;;44.37;15.57;;;8.60;99.90;;;;;;5058629;28;20186;-75
2021/12/30 08:00:27;;;;;;;46.53;16.77;;;8.60;99.90;;;;;;5051398;28;20212;-77
2021/12/30 08:02:53;;;;;;;53.30;17.30;;;8.70;99.90;;;;;;5046007;28;20205;-77
2021/12/30 08:05:22;;;;;;;43.27;16.90;;;8.70;99.90;;;;;;5054494;28;20220;-76
2021/12/30 08:07:49;;;;;;;52.13;18.93;;;8.70;99.90;;;;;;5045117;28;20237;-78
2021/12/30 08:10:18;;;;;;;48.90;19.47;;;8.70;99.90;;;;;;5039834;28;20182;-81
2021/12/30 08:12:45;;;;;;;49.23;17.87;;;8.70;99.90;;;;;;5043082;28;20192;-80
2021/12/30 08:15:13;;;;;;;53.17;18.30;;;8.70;99.90;;;;;;5052855;28;20207;-80
2021/12/30 08:17:39;;;;;;;49.27;18.43;;;8.80;99.90;;;;;;5037920;28;20235;-81
2021/12/30 08:20:07;;;;;;;45.53;18.80;;;8.80;99.90;;;;;;5058258;28;20186;-80
2021/12/30 08:22:33;;;;;;;56.30;19.27;;;8.80;99.90;;;;;;5053963;28;20181;-80
2021/12/30 08:24:59;;;;;;;52.00;19.07;;;8.80;99.90;;;;;;5049972;28;20342;-81
2021/12/30 08:27:25;;;;;;;49.63;19.43;;;8.80;99.90;;;;;;5050215;28;20197;-80
2021/12/30 08:29:51;;;;;;;54.40;18.90;;;8.90;99.90;;;;;;5041429;28;20256;-81
2021/12/30 08:32:18;;;;;;;44.87;18.60;;;8.90;99.90;;;;;;5059178;28;20193;-81
2021/12/30 08:34:45;;;;;;;49.17;18.77;;;9.00;99.90;;;;;;5047735;28;20243;-81
2021/12/30 08:37:12;;;;;;;52.40;19.83;;;9.00;99.90;;;;;;5043377;28;20220;-80
2021/12/30 08:39:41;;;;;;;50.23;18.67;;;9.10;99.90;;;;;;5034339;28;20207;-81
2021/12/30 08:42:26;;;;;;;49.90;19.57;;;9.10;99.90;;;;;;5049687;28;20207;-81
2021/12/30 08:44:54;;;;;;;47.03;19.50;;;9.10;99.90;;;;;;5032021;28;20216;-81
2021/12/30 08:47:21;;;;;;;53.33;19.87;;;9.10;99.90;;;;;;5036810;28;20264;-80
2021/12/30 08:49:47;;;;;;;47.07;18.33;;;9.20;99.90;;;;;;5034913;28;20176;-81
2021/12/30 08:52:18;;;;;;;50.23;21.10;;;9.20;99.90;;;;;;5040981;28;20552;-79
2021/12/30 08:54:47;;;;;;;47.60;19.87;;;9.30;99.90;;;;;;5040010;28;20400;-81
2021/12/30 08:57:15;;;;;;;47.70;19.53;;;9.30;99.90;;;;;;5049751;28;20182;-79
2021/12/30 08:59:41;;;;;;;54.67;20.33;;;9.40;99.90;;;;;;5035066;28;20185;-79
2021/12/30 09:02:08;;;;;;;50.23;20.57;;;9.40;99.90;;;;;;5053281;28;20170;-80
2021/12/30 09:04:34;;;;;;;48.97;21.20;;;9.40;99.90;;;;;;5044265;28;20208;-79
2021/12/30 09:07:01;;;;;;;53.17;21.07;;;9.30;99.90;;;;;;5054482;28;20186;-81
2021/12/30 09:09:27;;;;;;;50.33;22.00;;;9.40;99.90;;;;;;5037873;28;20268;-81
2021/12/30 09:11:53;;;;;;;56.63;20.90;;;9.50;99.90;;;;;;5051181;28;20244;-80
2021/12/30 09:14:19;;;;;;;48.00;20.83;;;9.40;99.90;;;;;;5044922;28;20222;-81
2021/12/30 09:16:44;;;;;;;48.33;20.93;;;9.40;99.90;;;;;;5037174;28;20264;-81
2021/12/30 09:19:11;;;;;;;49.80;21.07;;;9.40;99.90;;;;;;5033889;28;20195;-81
2021/12/30 09:21:40;;;;;;;58.93;21.23;;;9.40;99.90;;;;;;5048915;28;20174;-77
2021/12/30 09:24:07;;;;;;;52.07;20.97;;;9.40;99.90;;;;;;5069209;28;20175;-79
2021/12/30 09:26:33;;;;;;;64.97;24.60;;;9.30;99.90;;;;;;5062562;28;20205;-77
2021/12/30 09:28:59;;;;;;;65.60;24.50;;;9.20;99.90;;;;;;5053115;28;20194;-80
2021/12/30 09:31:25;;;;;;;64.70;25.23;;;9.10;99.90;;;;;;5062262;28;20193;-77
2021/12/30 09:33:50;;;;;;;58.43;24.10;;;9.00;99.90;;;;;;5054471;28;20184;-77
2021/12/30 09:36:16;;;;;;;57.30;23.53;;;9.00;99.90;;;;;;5053925;28;20178;-76
2021/12/30 09:38:42;;;;;;;66.93;24.63;;;8.90;99.90;;;;;;5056434;28;20177;-76
2021/12/30 09:41:07;;;;;;;66.03;25.67;;;9.00;99.90;;;;;;5054956;28;20171;-75
2021/12/30 09:43:34;;;;;;;62.43;23.27;;;9.00;99.90;;;;;;5055758;28;20162;-79
2021/12/30 09:46:00;;;;;;;65.23;23.47;;;9.00;99.90;;;;;;5062055;28;20199;-77
2021/12/30 09:48:27;;;;;;;71.23;24.67;;;9.00;99.90;;;;;;5054138;28;20177;-79
2021/12/30 09:50:54;;;;;;;67.17;23.93;;;9.00;99.90;;;;;;5052562;28;20175;-76
2021/12/30 09:53:23;;;;;;;74.80;24.57;;;9.00;99.90;;;;;;5059642;28;20175;-80
2021/12/30 09:55:50;;;;;;;69.73;25.77;;;9.00;99.90;;;;;;5055652;28;20699;-78
2021/12/30 09:58:16;;;;;;;61.37;23.87;;;9.00;99.90;;;;;;5060547;28;20202;-78
2021/12/30 10:00:42;;;;;;;64.73;23.40;;;9.00;99.90;;;;;;5060531;28;20183;-79
2021/12/30 10:03:08;;;;;;;62.07;22.20;;;9.00;99.90;;;;;;5051696;28;20177;-79
2021/12/30 10:05:38;;;;;;;58.90;21.50;;;9.00;99.90;;;;;;5063565;28;20199;-76
2021/12/30 10:08:20;;;;;;;62.17;20.73;;;9.10;99.90;;;;;;5063153;28;20176;-75
2021/12/30 10:10:55;;;;;;;41.53;19.30;;;9.10;99.90;;;;;;5058621;28;20185;-76
2021/12/30 10:13:29;;;;;;;48.30;18.77;;;9.10;99.90;;;;;;5061432;28;20186;-77
2021/12/30 10:16:01;;;;;;;48.70;18.50;;;9.20;99.90;;;;;;5070896;28;20217;-75
2021/12/30 10:18:50;;;;;;;43.03;17.50;;;9.20;99.90;;;;;;5057742;28;20173;-78
2021/12/30 10:21:34;;;;;;;43.77;17.83;;;9.20;99.90;;;;;;5058594;28;20173;-79
2021/12/30 10:24:03;;;;;;;39.57;17.70;;;9.30;99.90;;;;;;5056750;28;20178;-80
2021/12/30 10:26:29;;;;;;;39.67;16.77;;;9.40;99.90;;;;;;5057641;28;20227;-80
2021/12/30 10:28:58;;;;;;;40.93;17.20;;;9.40;99.90;;;;;;5054431;28;20197;-81
2021/12/30 10:31:26;;;;;;;35.83;17.20;;;9.40;99.90;;;;;;5038214;28;20174;-80
2021/12/30 10:34:09;;;;;;;32.73;16.53;;;9.40;99.90;;;;;;5055330;28;20218;-81
2021/12/30 10:36:39;;;;;;;38.63;16.63;;;9.40;99.90;;;;;;5047434;28;20214;-80
2021/12/30 10:39:29;;;;;;;35.87;16.23;;;9.50;99.90;;;;;;5040298;28;20176;-80
2021/12/30 10:42:09;;;;;;;33.73;16.27;;;9.60;99.90;;;;;;5041523;28;20183;-79
2021/12/30 10:45:04;;;;;;;28.13;15.30;;;9.60;99.90;;;;;;5066586;28;20241;-78
2021/12/30 10:47:51;;;;;;;26.73;14.60;;;9.60;99.90;;;;;;5067624;28;20174;-80
2021/12/30 10:50:21;;;;;;;30.47;15.10;;;9.70;99.90;;;;;;5044698;28;20182;-78
2021/12/30 10:52:55;;;;;;;25.30;12.93;;;9.70;99.90;;;;;;5050889;28;20170;-81
2021/12/30 10:55:22;;;;;;;22.67;13.00;;;9.70;99.90;;;;;;5035599;28;20212;-81
2021/12/30 10:57:48;;;;;;;38.37;13.93;;;9.80;99.90;;;;;;5047186;28;20184;-80
2021/12/30 11:00:32;;;;;;;30.97;12.37;;;9.80;99.90;;;;;;5054128;28;20199;-80
2021/12/30 11:03:27;;;;;;;30.53;11.13;;;9.90;99.90;;;;;;5031998;28;20235;-81
2021/12/30 11:06:11;;;;;;;22.60;11.10;;;9.90;99.90;;;;;;5041478;28;20263;-80
2021/12/30 11:08:36;;;;;;;21.63;10.20;;;10.00;99.90;;;;;;5050421;28;20176;-81
2021/12/30 11:11:25;;;;;;;18.57;10.20;;;10.00;99.90;;;;;;5038693;28;20249;-81
2021/12/30 11:14:07;;;;;;;13.90;9.03;;;10.00;99.90;;;;;;5031158;28;20176;-81
2021/12/30 11:16:52;;;;;;;16.17;9.07;;;10.10;99.90;;;;;;5040435;28;20196;-81
2021/12/30 11:19:18;;;;;;;15.10;8.97;;;10.10;99.90;;;;;;5031802;28;20177;-81
2021/12/30 11:21:44;;;;;;;15.83;9.00;;;10.10;99.90;;;;;;5047158;28;20311;-81
2021/12/30 11:24:11;;;;;;;15.60;8.97;;;10.10;99.90;;;;;;5028435;28;20193;-81
2021/12/30 11:26:37;;;;;;;13.97;8.20;;;10.20;99.90;;;;;;5030552;28;20226;-81
2021/12/30 11:29:05;;;;;;;14.20;8.70;;;10.20;99.90;;;;;;5033391;28;20186;-80
2021/12/30 11:31:31;;;;;;;12.23;8.53;;;10.30;99.90;;;;;;5038175;28;20264;-82
2021/12/30 11:33:59;;;;;;;14.47;7.90;;;10.30;99.90;;;;;;5037147;28;20181;-82
2021/12/30 11:36:28;;;;;;;11.23;7.70;;;10.40;99.90;;;;;;5056287;28;20194;-82
2021/12/30 11:38:58;;;;;;;12.73;7.80;;;10.40;99.90;;;;;;5032205;28;20185;-80
2021/12/30 11:41:26;;;;;;;12.27;7.47;;;10.50;99.90;;;;;;5040455;28;20174;-81
2021/12/30 11:43:51;;;;;;;12.97;7.73;;;10.50;99.90;;;;;;5040758;28;20176;-82
2021/12/30 11:46:51;;;;;;;13.03;8.17;;;10.60;99.90;;;;;;5037263;28;20262;-77
2021/12/30 11:49:16;;;;;;;14.67;8.63;;;10.60;99.90;;;;;;5040879;28;20178;-78
2021/12/30 11:51:46;;;;;;;13.63;8.13;;;10.70;99.90;;;;;;5033397;28;20189;-79
2021/12/30 11:54:32;;;;;;;13.70;8.30;;;10.60;99.90;;;;;;5037419;28;20263;-79
2021/12/30 11:57:25;;;;;;;14.00;8.17;;;10.70;99.90;;;;;;5030880;28;20184;-79
2021/12/30 12:00:30;;;;;;;13.17;7.53;;;10.70;99.90;;;;;;5008752;28;20186;-77
2021/12/30 12:03:01;;;;;;;11.70;7.90;;;10.70;99.90;;;;;;5018167;28;20189;-76
2021/12/30 12:05:43;;;;;;;10.57;7.20;;;10.80;99.90;;;;;;5024827;28;20240;-76
2021/12/30 12:08:11;;;;;;;9.40;7.00;;;10.80;99.90;;;;;;5037350;28;20188;-77
2021/12/30 12:10:44;;;;;;;11.13;6.53;;;10.80;99.90;;;;;;5034299;28;20188;-77
2021/12/30 12:13:35;;;;;;;8.80;6.03;;;10.90;99.90;;;;;;5035340;28;20169;-78
2021/12/30 12:16:02;;;;;;;8.30;6.53;;;10.90;99.90;;;;;;5037580;28;20208;-79
2021/12/30 12:18:29;;;;;;;7.33;6.20;;;10.90;99.90;;;;;;5037354;28;20590;-78
2021/12/30 12:20:58;;;;;;;8.27;6.27;;;11.00;99.90;;;;;;5027980;28;20671;-79
2021/12/30 12:23:38;;;;;;;7.63;5.50;;;10.90;99.90;;;;;;5033885;28;20181;-78
2021/12/30 12:26:13;;;;;;;9.37;5.80;;;11.00;99.90;;;;;;5035761;28;20194;-78
2021/12/30 12:28:40;;;;;;;7.00;5.87;;;10.90;99.90;;;;;;5023872;28;20189;-78
2021/12/30 12:31:07;;;;;;;7.40;6.10;;;11.00;99.90;;;;;;5031969;28;20199;-77
2021/12/30 12:33:34;;;;;;;6.97;6.17;;;11.00;99.90;;;;;;5035955;28;20185;-79
2021/12/30 12:36:17;;;;;;;7.00;6.03;;;11.00;99.90;;;;;;5047519;28;20209;-78
2021/12/30 12:38:50;;;;;;;5.87;5.27;;;11.00;99.90;;;;;;5048215;28;20173;-78
2021/12/30 12:41:25;;;;;;;8.03;5.93;;;11.10;99.90;;;;;;5023229;28;20185;-78
2021/12/30 12:43:56;;;;;;;6.40;5.60;;;11.10;99.90;;;;;;5041203;28;20180;-76